sensor_id;sensor_type;location;lat;lon;timestamp;pressure;altitude;pressure_sealevel;temperature;humidity
73101;BME280;61288;53.446;-2.266;2023-03-01T00:01:48;103372.94;;;4.47;85.64
73101;BME280;61288;53.446;-2.266;2023-03-01T00:04:14;103377.81;;;4.38;86.34
73101;BME280;61288;53.446;-2.266;2023-03-01T00:06:39;103388.75;;;4.30;86.40
73101;BME280;61288;53.446;-2.266;2023-03-01T00:09:05;103382.47;;;4.21;86.54
73101;BME280;61288;53.446;-2.266;2023-03-01T00:11:32;103383.97;;;4.14;86.95
73101;BME280;61288;53.446;-2.266;2023-03-01T00:14:00;103377.00;;;4.10;87.00
73101;BME280;61288;53.446;-2.266;2023-03-01T00:16:28;103389.72;;;4.05;87.27
73101;BME280;61288;53.446;-2.266;2023-03-01T00:18:55;103392.88;;;3.96;87.25
73101;BME280;61288;53.446;-2.266;2023-03-01T00:21:22;103388.66;;;3.98;87.78
73101;BME280;61288;53.446;-2.266;2023-03-01T00:23:49;103392.28;;;4.05;87.45
73101;BME280;61288;53.446;-2.266;2023-03-01T00:26:17;103388.16;;;4.10;87.46
73101;BME280;61288;53.446;-2.266;2023-03-01T00:28:45;103383.97;;;4.14;87.85
73101;BME280;61288;53.446;-2.266;2023-03-01T00:31:17;103386.69;;;4.18;87.55
73101;BME280;61288;53.446;-2.266;2023-03-01T00:33:44;103385.03;;;4.21;87.78
73101;BME280;61288;53.446;-2.266;2023-03-01T00:36:11;103386.81;;;4.23;87.57
73101;BME280;61288;53.446;-2.266;2023-03-01T00:38:39;103383.53;;;4.27;87.77
73101;BME280;61288;53.446;-2.266;2023-03-01T00:41:07;103383.53;;;4.29;87.19
73101;BME280;61288;53.446;-2.266;2023-03-01T00:43:33;103383.66;;;4.32;87.26
73101;BME280;61288;53.446;-2.266;2023-03-01T00:46:06;103379.47;;;4.36;87.44
73101;BME280;61288;53.446;-2.266;2023-03-01T00:48:33;103382.94;;;4.38;87.16
73101;BME280;61288;53.446;-2.266;2023-03-01T00:53:43;103370.28;;;4.44;88.63
73101;BME280;61288;53.446;-2.266;2023-03-01T00:56:10;103374.50;;;4.42;89.04
73101;BME280;61288;53.446;-2.266;2023-03-01T00:58:36;103373.66;;;4.41;90.04
73101;BME280;61288;53.446;-2.266;2023-03-01T01:01:18;103368.47;;;4.40;91.31
73101;BME280;61288;53.446;-2.266;2023-03-01T01:03:50;103359.03;;;4.39;91.81
73101;BME280;61288;53.446;-2.266;2023-03-01T01:06:22;103367.59;;;4.39;91.83
73101;BME280;61288;53.446;-2.266;2023-03-01T01:08:49;103365.81;;;4.37;92.24
73101;BME280;61288;53.446;-2.266;2023-03-01T01:11:16;103353.81;;;4.36;92.40
73101;BME280;61288;53.446;-2.266;2023-03-01T01:13:44;103352.97;;;4.37;92.44
73101;BME280;61288;53.446;-2.266;2023-03-01T01:16:09;103359.81;;;4.36;92.13
73101;BME280;61288;53.446;-2.266;2023-03-01T01:18:35;103350.38;;;4.35;92.32
73101;BME280;61288;53.446;-2.266;2023-03-01T01:21:06;103353.81;;;4.36;92.47
73101;BME280;61288;53.446;-2.266;2023-03-01T01:23:32;103359.81;;;4.36;92.20
73101;BME280;61288;53.446;-2.266;2023-03-01T01:25:57;103344.50;;;4.39;92.23
73101;BME280;61288;53.446;-2.266;2023-03-01T01:28:23;103348.75;;;4.39;90.85
73101;BME280;61288;53.446;-2.266;2023-03-01T01:30:48;103331.69;;;4.41;90.57
73101;BME280;61288;53.446;-2.266;2023-03-01T01:33:14;103326.53;;;4.39;88.90
73101;BME280;61288;53.446;-2.266;2023-03-01T01:35:39;103336.06;;;4.43;88.31
73101;BME280;61288;53.446;-2.266;2023-03-01T01:38:04;103327.66;;;4.49;86.91
73101;BME280;61288;53.446;-2.266;2023-03-01T01:40:30;103331.13;;;4.51;86.57
73101;BME280;61288;53.446;-2.266;2023-03-01T01:42:55;103324.38;;;4.55;86.62
73101;BME280;61288;53.446;-2.266;2023-03-01T01:45:31;103327.81;;;4.55;86.19
73101;BME280;61288;53.446;-2.266;2023-03-01T01:48:01;103320.13;;;4.57;86.02
73101;BME280;61288;53.446;-2.266;2023-03-01T01:50:30;103321.97;;;4.61;86.02
73101;BME280;61288;53.446;-2.266;2023-03-01T01:53:06;103317.66;;;4.60;85.77
73101;BME280;61288;53.446;-2.266;2023-03-01T01:55:36;103317.66;;;4.60;86.16
73101;BME280;61288;53.446;-2.266;2023-03-01T01:58:04;103320.19;;;4.58;86.21
73101;BME280;61288;53.446;-2.266;2023-03-01T02:00:32;103313.25;;;4.54;86.15
73101;BME280;61288;53.446;-2.266;2023-03-01T02:03:00;103307.22;;;4.54;85.54
73101;BME280;61288;53.446;-2.266;2023-03-01T02:05:40;103308.97;;;4.55;85.12
73101;BME280;61288;53.446;-2.266;2023-03-01T02:08:11;103305.53;;;4.54;85.32
73101;BME280;61288;53.446;-2.266;2023-03-01T02:10:38;103303.81;;;4.53;85.68
73101;BME280;61288;53.446;-2.266;2023-03-01T02:13:04;103296.88;;;4.51;85.82
73101;BME280;61288;53.446;-2.266;2023-03-01T02:15:35;103302.81;;;4.48;85.82
73101;BME280;61288;53.446;-2.266;2023-03-01T02:18:02;103295.00;;;4.45;86.44
73101;BME280;61288;53.446;-2.266;2023-03-01T02:23:31;103284.53;;;4.37;86.78
73101;BME280;61288;53.446;-2.266;2023-03-01T02:26:07;103276.63;;;4.29;87.00
73101;BME280;61288;53.446;-2.266;2023-03-01T02:28:40;103277.38;;;4.25;86.84
73101;BME280;61288;53.446;-2.266;2023-03-01T02:31:09;103280.72;;;4.23;86.75
73101;BME280;61288;53.446;-2.266;2023-03-01T02:33:55;103268.63;;;4.18;86.66
73101;BME280;61288;53.446;-2.266;2023-03-01T02:36:45;103273.75;;;4.18;86.72
73101;BME280;61288;53.446;-2.266;2023-03-01T02:39:17;103267.78;;;4.18;86.54
73101;BME280;61288;53.446;-2.266;2023-03-01T02:41:48;103271.25;;;4.20;86.25
73101;BME280;61288;53.446;-2.266;2023-03-01T02:44:14;103276.38;;;4.20;86.13
73101;BME280;61288;53.446;-2.266;2023-03-01T02:46:46;103285.00;;;4.22;86.15
73101;BME280;61288;53.446;-2.266;2023-03-01T02:49:23;103275.56;;;4.21;86.36
73101;BME280;61288;53.446;-2.266;2023-03-01T02:54:29;103276.53;;;4.26;86.09
73101;BME280;61288;53.446;-2.266;2023-03-01T02:56:59;103271.44;;;4.28;85.49
73101;BME280;61288;53.446;-2.266;2023-03-01T02:59:29;103274.88;;;4.28;85.53
73101;BME280;61288;53.446;-2.266;2023-03-01T03:01:56;103266.31;;;4.28;85.65
73101;BME280;61288;53.446;-2.266;2023-03-01T03:04:22;103268.94;;;4.29;84.82
73101;BME280;61288;53.446;-2.266;2023-03-01T03:06:49;103263.78;;;4.29;85.04
73101;BME280;61288;53.446;-2.266;2023-03-01T03:09:17;103265.47;;;4.29;85.19
73101;BME280;61288;53.446;-2.266;2023-03-01T03:11:43;103269.78;;;4.30;85.46
73101;BME280;61288;53.446;-2.266;2023-03-01T03:14:13;103268.09;;;4.30;84.97
73101;BME280;61288;53.446;-2.266;2023-03-01T03:16:45;103272.41;;;4.31;85.13
73101;BME280;61288;53.446;-2.266;2023-03-01T03:19:11;103263.03;;;4.33;85.36
73101;BME280;61288;53.446;-2.266;2023-03-01T03:21:37;103262.28;;;4.38;85.10
73101;BME280;61288;53.446;-2.266;2023-03-01T03:24:02;103261.47;;;4.39;84.77
73101;BME280;61288;53.446;-2.266;2023-03-01T03:26:28;103258.03;;;4.38;84.72
73101;BME280;61288;53.446;-2.266;2023-03-01T03:28:54;103255.44;;;4.37;84.97
73101;BME280;61288;53.446;-2.266;2023-03-01T03:31:20;103261.38;;;4.34;85.09
73101;BME280;61288;53.446;-2.266;2023-03-01T03:33:45;103260.47;;;4.33;84.83
73101;BME280;61288;53.446;-2.266;2023-03-01T03:36:19;103253.69;;;4.36;85.07
73101;BME280;61288;53.446;-2.266;2023-03-01T03:38:46;103261.38;;;4.36;85.03
73101;BME280;61288;53.446;-2.266;2023-03-01T03:41:14;103251.09;;;4.34;85.43
73101;BME280;61288;53.446;-2.266;2023-03-01T03:43:41;103251.09;;;4.34;85.41
73101;BME280;61288;53.446;-2.266;2023-03-01T03:46:09;103250.19;;;4.32;85.86
73101;BME280;61288;53.446;-2.266;2023-03-01T03:48:38;103242.38;;;4.29;85.97
73101;BME280;61288;53.446;-2.266;2023-03-01T03:51:05;103239.78;;;4.27;86.27
73101;BME280;61288;53.446;-2.266;2023-03-01T03:53:31;103238.06;;;4.26;85.62
73101;BME280;61288;53.446;-2.266;2023-03-01T03:55:57;103231.19;;;4.25;86.01
73101;BME280;61288;53.446;-2.266;2023-03-01T03:58:24;103235.47;;;4.26;85.63
73101;BME280;61288;53.446;-2.266;2023-03-01T04:00:55;103240.63;;;4.26;85.53
73101;BME280;61288;53.446;-2.266;2023-03-01T04:03:26;103234.56;;;4.24;86.17
73101;BME280;61288;53.446;-2.266;2023-03-01T04:05:52;103233.69;;;4.24;85.21
73101;BME280;61288;53.446;-2.266;2023-03-01T04:08:19;103237.13;;;4.24;85.03
73101;BME280;61288;53.446;-2.266;2023-03-01T04:10:48;103227.66;;;4.22;85.22
73101;BME280;61288;53.446;-2.266;2023-03-01T04:13:18;103229.31;;;4.19;85.20
73101;BME280;61288;53.446;-2.266;2023-03-01T04:15:51;103225.81;;;4.17;85.31
73101;BME280;61288;53.446;-2.266;2023-03-01T04:18:20;103227.50;;;4.15;85.42
73101;BME280;61288;53.446;-2.266;2023-03-01T04:20:48;103224.88;;;4.14;85.75
73101;BME280;61288;53.446;-2.266;2023-03-01T04:23:19;103219.72;;;4.12;85.67
73101;BME280;61288;53.446;-2.266;2023-03-01T04:25:52;103217.09;;;4.11;86.38
73101;BME280;61288;53.446;-2.266;2023-03-01T04:28:31;103213.69;;;4.12;85.98
73101;BME280;61288;53.446;-2.266;2023-03-01T04:31:06;103208.56;;;4.12;86.27
73101;BME280;61288;53.446;-2.266;2023-03-01T04:36:09;103202.56;;;4.11;86.34
73101;BME280;61288;53.446;-2.266;2023-03-01T04:38:36;103200.16;;;4.16;85.98
73101;BME280;61288;53.446;-2.266;2023-03-01T04:41:04;103206.13;;;4.16;86.01
73101;BME280;61288;53.446;-2.266;2023-03-01T04:43:30;103195.09;;;4.19;86.00
73101;BME280;61288;53.446;-2.266;2023-03-01T04:46:02;103192.53;;;4.21;86.25
73101;BME280;61288;53.446;-2.266;2023-03-01T04:48:30;103189.16;;;4.22;86.38
73101;BME280;61288;53.446;-2.266;2023-03-01T04:50:58;103192.59;;;4.22;86.38
73101;BME280;61288;53.446;-2.266;2023-03-01T04:53:23;103185.81;;;4.24;86.59
73101;BME280;61288;53.446;-2.266;2023-03-01T04:55:50;103186.66;;;4.25;86.87
73101;BME280;61288;53.446;-2.266;2023-03-01T04:58:16;103178.88;;;4.20;87.02
73101;BME280;61288;53.446;-2.266;2023-03-01T05:00:41;103176.84;;;4.10;87.24
73101;BME280;61288;53.446;-2.266;2023-03-01T05:03:08;103181.06;;;4.06;87.37
73101;BME280;61288;53.446;-2.266;2023-03-01T05:05:38;103186.06;;;4.01;87.90
73101;BME280;61288;53.446;-2.266;2023-03-01T05:08:07;103194.59;;;4.00;87.79
73101;BME280;61288;53.446;-2.266;2023-03-01T05:10:35;103189.44;;;3.99;87.76
73101;BME280;61288;53.446;-2.266;2023-03-01T05:13:02;103192.00;;;3.99;87.90
73101;BME280;61288;53.446;-2.266;2023-03-01T05:15:29;103196.28;;;4.00;88.40
73101;BME280;61288;53.446;-2.266;2023-03-01T05:17:57;103192.00;;;4.00;88.55
73101;BME280;61288;53.446;-2.266;2023-03-01T05:20:28;103199.72;;;4.00;88.20
73101;BME280;61288;53.446;-2.266;2023-03-01T05:22:59;103198.84;;;4.00;88.47
73101;BME280;61288;53.446;-2.266;2023-03-01T05:25:26;103197.19;;;4.02;88.67
73101;BME280;61288;53.446;-2.266;2023-03-01T05:27:52;103198.13;;;4.04;89.09
73101;BME280;61288;53.446;-2.266;2023-03-01T05:33:13;103187.03;;;4.07;88.81
73101;BME280;61288;53.446;-2.266;2023-03-01T05:35:40;103183.69;;;4.09;88.75
73101;BME280;61288;53.446;-2.266;2023-03-01T05:38:08;103187.19;;;4.11;88.48
73101;BME280;61288;53.446;-2.266;2023-03-01T05:40:34;103187.19;;;4.11;88.56
73101;BME280;61288;53.446;-2.266;2023-03-01T05:43:00;103194.97;;;4.14;87.84
73101;BME280;61288;53.446;-2.266;2023-03-01T05:45:26;103188.16;;;4.16;86.79
73101;BME280;61288;53.446;-2.266;2023-03-01T05:47:52;103183.91;;;4.17;85.33
73101;BME280;61288;53.446;-2.266;2023-03-01T05:50:22;103196.78;;;4.18;85.44
73101;BME280;61288;53.446;-2.266;2023-03-01T05:52:51;103192.53;;;4.19;85.45
73101;BME280;61288;53.446;-2.266;2023-03-01T05:55:19;103189.97;;;4.19;86.30
73101;BME280;61288;53.446;-2.266;2023-03-01T05:57:45;103193.44;;;4.21;85.92
73101;BME280;61288;53.446;-2.266;2023-03-01T06:00:12;103195.16;;;4.22;86.00
73101;BME280;61288;53.446;-2.266;2023-03-01T06:02:39;103187.47;;;4.22;86.27
73101;BME280;61288;53.446;-2.266;2023-03-01T06:05:06;103191.69;;;4.20;86.13
73101;BME280;61288;53.446;-2.266;2023-03-01T06:07:35;103185.69;;;4.19;85.92
73101;BME280;61288;53.446;-2.266;2023-03-01T06:10:03;103184.81;;;4.19;86.12
73101;BME280;61288;53.446;-2.266;2023-03-01T06:12:33;103184.00;;;4.20;86.22
73101;BME280;61288;53.446;-2.266;2023-03-01T06:14:59;103185.69;;;4.19;86.11
73101;BME280;61288;53.446;-2.266;2023-03-01T06:17:25;103195.13;;;4.21;86.05
73101;BME280;61288;53.446;-2.266;2023-03-01T06:19:50;103201.13;;;4.21;85.81
73101;BME280;61288;53.446;-2.266;2023-03-01T06:22:16;103194.25;;;4.20;86.03
73101;BME280;61288;53.446;-2.266;2023-03-01T06:24:41;103202.81;;;4.21;85.69
73101;BME280;61288;53.446;-2.266;2023-03-01T06:27:06;103200.31;;;4.24;84.99
73101;BME280;61288;53.446;-2.266;2023-03-01T06:29:32;103208.03;;;4.24;85.21
73101;BME280;61288;53.446;-2.266;2023-03-01T06:31:58;103209.81;;;4.26;84.81
73101;BME280;61288;53.446;-2.266;2023-03-01T06:34:25;103206.38;;;4.26;85.12
73101;BME280;61288;53.446;-2.266;2023-03-01T06:36:50;103210.66;;;4.27;84.79
73101;BME280;61288;53.446;-2.266;2023-03-01T06:39:16;103206.44;;;4.29;84.70
73101;BME280;61288;53.446;-2.266;2023-03-01T06:41:43;103207.28;;;4.28;85.11
73101;BME280;61288;53.446;-2.266;2023-03-01T06:44:08;103206.38;;;4.26;84.79
73101;BME280;61288;53.446;-2.266;2023-03-01T06:46:34;103210.66;;;4.25;84.97
73101;BME280;61288;53.446;-2.266;2023-03-01T06:48:59;103203.78;;;4.24;85.29
73101;BME280;61288;53.446;-2.266;2023-03-01T06:51:25;103202.06;;;4.25;85.09
73101;BME280;61288;53.446;-2.266;2023-03-01T06:53:51;103196.91;;;4.23;85.37
73101;BME280;61288;53.446;-2.266;2023-03-01T06:56:16;103202.88;;;4.24;85.35
73101;BME280;61288;53.446;-2.266;2023-03-01T06:58:42;103201.97;;;4.22;85.51
73101;BME280;61288;53.446;-2.266;2023-03-01T07:01:08;103202.88;;;4.22;85.94
73101;BME280;61288;53.446;-2.266;2023-03-01T07:03:36;103203.69;;;4.21;85.64
73101;BME280;61288;53.446;-2.266;2023-03-01T07:06:01;103201.13;;;4.21;85.93
73101;BME280;61288;53.446;-2.266;2023-03-01T07:08:27;103196.91;;;4.23;85.89
73101;BME280;61288;53.446;-2.266;2023-03-01T07:10:57;103198.59;;;4.23;86.42
73101;BME280;61288;53.446;-2.266;2023-03-01T07:13:22;103205.38;;;4.21;86.24
73101;BME280;61288;53.446;-2.266;2023-03-01T07:15:49;103208.03;;;4.24;86.82
73101;BME280;61288;53.446;-2.266;2023-03-01T07:18:15;103212.22;;;4.20;87.24
73101;BME280;61288;53.446;-2.266;2023-03-01T07:20:48;103213.06;;;4.19;87.35
73101;BME280;61288;53.446;-2.266;2023-03-01T07:23:24;103206.97;;;4.15;88.06
73101;BME280;61288;53.446;-2.266;2023-03-01T07:26:04;103206.09;;;4.15;88.34
73101;BME280;61288;53.446;-2.266;2023-03-01T07:28:34;103204.38;;;4.15;88.71
73101;BME280;61288;53.446;-2.266;2023-03-01T07:31:02;103206.13;;;4.16;88.59
73101;BME280;61288;53.446;-2.266;2023-03-01T07:33:28;103207.00;;;4.17;88.19
73101;BME280;61288;53.446;-2.266;2023-03-01T07:36:03;103212.22;;;4.20;88.67
73101;BME280;61288;53.446;-2.266;2023-03-01T07:38:30;103213.97;;;4.21;88.45
73101;BME280;61288;53.446;-2.266;2023-03-01T07:41:00;103216.63;;;4.26;88.53
73101;BME280;61288;53.446;-2.266;2023-03-01T07:43:31;103210.72;;;4.28;87.42
73101;BME280;61288;53.446;-2.266;2023-03-01T07:46:00;103204.69;;;4.28;87.30
73101;BME280;61288;53.446;-2.266;2023-03-01T07:48:26;103201.38;;;4.30;87.35
73101;BME280;61288;53.446;-2.266;2023-03-01T07:50:52;103203.16;;;4.33;87.20
73101;BME280;61288;53.446;-2.266;2023-03-01T07:53:17;103206.63;;;4.35;86.78
73101;BME280;61288;53.446;-2.266;2023-03-01T07:55:46;103204.91;;;4.36;86.57
73101;BME280;61288;53.446;-2.266;2023-03-01T07:58:12;103214.44;;;4.40;86.04
73101;BME280;61288;53.446;-2.266;2023-03-01T08:00:43;103215.34;;;4.42;86.93
73101;BME280;61288;53.446;-2.266;2023-03-01T08:03:10;103217.16;;;4.46;86.59
73101;BME280;61288;53.446;-2.266;2023-03-01T08:05:35;103216.38;;;4.48;86.20
73101;BME280;61288;53.446;-2.266;2023-03-01T08:08:01;103220.75;;;4.53;85.86
73101;BME280;61288;53.446;-2.266;2023-03-01T08:10:26;103219.09;;;4.55;85.84
73101;BME280;61288;53.446;-2.266;2023-03-01T08:12:52;103217.44;;;4.57;85.77
73101;BME280;61288;53.446;-2.266;2023-03-01T08:15:18;103221.72;;;4.58;86.51
73101;BME280;61288;53.446;-2.266;2023-03-01T08:17:44;103229.50;;;4.61;86.57
73101;BME280;61288;53.446;-2.266;2023-03-01T08:20:10;103223.59;;;4.63;86.58
73101;BME280;61288;53.446;-2.266;2023-03-01T08:22:37;103219.34;;;4.64;87.38
73101;BME280;61288;53.446;-2.266;2023-03-01T08:25:03;103216.78;;;4.66;87.60
73101;BME280;61288;53.446;-2.266;2023-03-01T08:27:29;103210.81;;;4.65;86.97
73101;BME280;61288;53.446;-2.266;2023-03-01T08:29:54;103218.59;;;4.68;86.97
73101;BME280;61288;53.446;-2.266;2023-03-01T08:32:20;103212.63;;;4.69;86.15
73101;BME280;61288;53.446;-2.266;2023-03-01T08:34:49;103201.59;;;4.75;86.66
73101;BME280;61288;53.446;-2.266;2023-03-01T08:37:16;103205.25;;;4.85;86.52
73101;BME280;61288;53.446;-2.266;2023-03-01T08:39:42;103210.53;;;4.91;87.46
73101;BME280;61288;53.446;-2.266;2023-03-01T08:42:11;103204.50;;;4.89;86.64
73101;BME280;61288;53.446;-2.266;2023-03-01T08:44:38;103201.94;;;4.89;86.08
73101;BME280;61288;53.446;-2.266;2023-03-01T08:47:05;103200.25;;;4.89;86.71
73101;BME280;61288;53.446;-2.266;2023-03-01T08:49:30;103193.66;;;5.01;86.52
73101;BME280;61288;53.446;-2.266;2023-03-01T08:51:57;103197.91;;;5.39;85.48
73101;BME280;61288;53.446;-2.266;2023-03-01T08:54:23;103202.25;;;5.41;84.22
73101;BME280;61288;53.446;-2.266;2023-03-01T08:56:49;103204.97;;;5.47;83.86
73101;BME280;61288;53.446;-2.266;2023-03-01T08:59:16;103198.22;;;5.53;83.90
73101;BME280;61288;53.446;-2.266;2023-03-01T09:01:43;103208.50;;;5.54;82.80
73101;BME280;61288;53.446;-2.266;2023-03-01T09:04:09;103211.03;;;5.51;82.95
73101;BME280;61288;53.446;-2.266;2023-03-01T09:06:36;103205.81;;;5.48;82.90
73101;BME280;61288;53.446;-2.266;2023-03-01T09:09:04;103211.84;;;5.48;82.92
73101;BME280;61288;53.446;-2.266;2023-03-01T09:11:30;103205.75;;;5.45;82.46
73101;BME280;61288;53.446;-2.266;2023-03-01T09:13:56;103204.03;;;5.45;83.23
73101;BME280;61288;53.446;-2.266;2023-03-01T09:16:22;103193.75;;;5.44;82.96
73101;BME280;61288;53.446;-2.266;2023-03-01T09:18:49;103198.88;;;5.44;82.99
73101;BME280;61288;53.446;-2.266;2023-03-01T09:21:16;103197.16;;;5.44;83.27
73101;BME280;61288;53.446;-2.266;2023-03-01T09:23:44;103195.47;;;5.45;82.50
73101;BME280;61288;53.446;-2.266;2023-03-01T09:26:13;103203.25;;;5.48;82.22
73101;BME280;61288;53.446;-2.266;2023-03-01T09:28:39;103203.31;;;5.51;82.32
73101;BME280;61288;53.446;-2.266;2023-03-01T09:31:10;103193.09;;;5.54;81.85
73101;BME280;61288;53.446;-2.266;2023-03-01T09:33:39;103197.44;;;5.58;81.65
73101;BME280;61288;53.446;-2.266;2023-03-01T09:36:08;103197.44;;;5.58;81.12
73101;BME280;61288;53.446;-2.266;2023-03-01T09:38:35;103188.16;;;5.65;81.22
73101;BME280;61288;53.446;-2.266;2023-03-01T09:41:00;103189.00;;;5.64;81.65
73101;BME280;61288;53.446;-2.266;2023-03-01T09:43:31;103189.97;;;5.69;81.16
73101;BME280;61288;53.446;-2.266;2023-03-01T09:46:04;103194.44;;;5.79;81.51
73101;BME280;61288;53.446;-2.266;2023-03-01T09:48:39;103199.69;;;5.83;81.40
73101;BME280;61288;53.446;-2.266;2023-03-01T09:51:09;103194.53;;;5.84;80.35
73101;BME280;61288;53.446;-2.266;2023-03-01T09:53:38;103199.03;;;5.95;80.63
73101;BME280;61288;53.446;-2.266;2023-03-01T09:56:20;103199.81;;;5.90;80.47
73101;BME280;61288;53.446;-2.266;2023-03-01T09:58:53;103194.66;;;5.90;79.76
73101;BME280;61288;53.446;-2.266;2023-03-01T10:01:32;103192.81;;;5.83;80.12
73101;BME280;61288;53.446;-2.266;2023-03-01T10:07:12;103191.34;;;5.96;79.56
73101;BME280;61288;53.446;-2.266;2023-03-01T10:09:43;103183.16;;;6.16;79.04
73101;BME280;61288;53.446;-2.266;2023-03-01T10:12:17;103176.50;;;6.27;78.50
73101;BME280;61288;53.446;-2.266;2023-03-01T10:15:11;103172.06;;;6.72;77.30
73101;BME280;61288;53.446;-2.266;2023-03-01T10:17:45;103160.34;;;6.91;75.65
73101;BME280;61288;53.446;-2.266;2023-03-01T10:22:42;103154.28;;;6.89;75.88
73101;BME280;61288;53.446;-2.266;2023-03-01T10:25:14;103136.38;;;6.99;75.84
73101;BME280;61288;53.446;-2.266;2023-03-01T10:27:52;103141.56;;;7.00;76.18
73101;BME280;61288;53.446;-2.266;2023-03-01T10:33:00;103125.44;;;7.15;75.30
73101;BME280;61288;53.446;-2.266;2023-03-01T10:35:31;103128.06;;;7.20;74.91
73101;BME280;61288;53.446;-2.266;2023-03-01T10:38:14;103120.09;;;7.03;73.79
73101;BME280;61288;53.446;-2.266;2023-03-01T10:40:52;103127.78;;;7.00;75.42
73101;BME280;61288;53.446;-2.266;2023-03-01T10:43:19;103130.28;;;6.95;75.23
73101;BME280;61288;53.446;-2.266;2023-03-01T10:45:46;103130.97;;;6.80;75.41
73101;BME280;61288;53.446;-2.266;2023-03-01T10:50:45;103131.56;;;6.63;74.66
73101;BME280;61288;53.446;-2.266;2023-03-01T10:53:40;103136.63;;;6.59;75.62
73101;BME280;61288;53.446;-2.266;2023-03-01T10:56:10;103139.94;;;6.48;75.20
73101;BME280;61288;53.446;-2.266;2023-03-01T10:58:38;103133.13;;;6.52;75.58
73101;BME280;61288;53.446;-2.266;2023-03-01T11:01:24;103134.78;;;6.48;75.90
73101;BME280;61288;53.446;-2.266;2023-03-01T11:06:30;103116.75;;;6.47;75.60
73101;BME280;61288;53.446;-2.266;2023-03-01T11:08:56;103114.97;;;6.44;76.58
73101;BME280;61288;53.446;-2.266;2023-03-01T11:11:33;103115.69;;;6.34;78.95
73101;BME280;61288;53.446;-2.266;2023-03-01T11:14:04;103117.47;;;6.40;79.55
73101;BME280;61288;53.446;-2.266;2023-03-01T11:16:36;103108.13;;;6.46;79.95
73101;BME280;61288;53.446;-2.266;2023-03-01T11:24:16;103092.28;;;8.45;76.16
73101;BME280;61288;53.446;-2.266;2023-03-01T11:26:47;103095.34;;;9.35;72.86
73101;BME280;61288;53.446;-2.266;2023-03-01T11:29:30;103077.31;;;9.66;70.14
73101;BME280;61288;53.446;-2.266;2023-03-01T11:32:00;103075.50;;;9.33;68.54
73101;BME280;61288;53.446;-2.266;2023-03-01T11:34:40;103086.41;;;8.65;70.08
73101;BME280;61288;53.446;-2.266;2023-03-01T11:37:16;103074.97;;;8.29;70.41
73101;BME280;61288;53.446;-2.266;2023-03-01T11:40:11;103075.63;;;8.07;71.05
73101;BME280;61288;53.446;-2.266;2023-03-01T11:43:02;103079.56;;;7.65;72.70
73101;BME280;61288;53.446;-2.266;2023-03-01T11:51:00;103051.31;;;6.97;73.14
73101;BME280;61288;53.446;-2.266;2023-03-01T11:53:48;103050.47;;;7.00;72.99
73101;BME280;61288;53.446;-2.266;2023-03-01T11:56:39;103045.59;;;7.25;72.08
73101;BME280;61288;53.446;-2.266;2023-03-01T12:07:10;103037.56;;;7.83;71.37
73101;BME280;61288;53.446;-2.266;2023-03-01T12:31:39;103006.63;;;7.86;72.34
73101;BME280;61288;53.446;-2.266;2023-03-01T12:37:18;103004.06;;;7.88;71.28
73101;BME280;61288;53.446;-2.266;2023-03-01T12:40:11;103002.16;;;7.68;71.44
73101;BME280;61288;53.446;-2.266;2023-03-01T12:48:42;102993.53;;;7.66;71.42
73101;BME280;61288;53.446;-2.266;2023-03-01T12:51:14;102991.78;;;7.62;71.48
73101;BME280;61288;53.446;-2.266;2023-03-01T12:53:45;103000.16;;;7.34;74.32
73101;BME280;61288;53.446;-2.266;2023-03-01T12:56:15;102995.63;;;7.15;78.21
73101;BME280;61288;53.446;-2.266;2023-03-01T12:59:48;102992.81;;;6.93;80.20
73101;BME280;61288;53.446;-2.266;2023-03-01T13:01:56;102995.34;;;6.90;81.75
73101;BME280;61288;53.446;-2.266;2023-03-01T13:09:48;102973.38;;;7.26;81.32
73101;BME280;61288;53.446;-2.266;2023-03-01T13:17:48;102964.97;;;7.43;79.59
73101;BME280;61288;53.446;-2.266;2023-03-01T13:20:23;102964.88;;;7.35;78.64
73101;BME280;61288;53.446;-2.266;2023-03-01T13:23:04;102962.16;;;7.19;79.14
73101;BME280;61288;53.446;-2.266;2023-03-01T13:25:30;102966.22;;;6.96;82.45
73101;BME280;61288;53.446;-2.266;2023-03-01T13:28:49;102946.94;;;6.62;84.09
73101;BME280;61288;53.446;-2.266;2023-03-01T13:31:09;102943.47;;;6.62;86.02
73101;BME280;61288;53.446;-2.266;2023-03-01T13:33:48;102929.03;;;6.75;84.60
73101;BME280;61288;53.446;-2.266;2023-03-01T13:41:51;102914.72;;;8.16;83.52
73101;BME280;61288;53.446;-2.266;2023-03-01T13:47:16;102913.22;;;8.60;79.93
73101;BME280;61288;53.446;-2.266;2023-03-01T13:49:59;102900.28;;;8.51;78.84
73101;BME280;61288;53.446;-2.266;2023-03-01T13:52:43;102882.88;;;8.17;77.37
73101;BME280;61288;53.446;-2.266;2023-03-01T13:57:50;102870.69;;;7.90;79.33
73101;BME280;61288;53.446;-2.266;2023-03-01T14:00:38;102859.50;;;7.85;78.74
73101;BME280;61288;53.446;-2.266;2023-03-01T14:03:10;102854.25;;;7.74;77.53
73101;BME280;61288;53.446;-2.266;2023-03-01T14:05:37;102855.91;;;7.62;76.61
73101;BME280;61288;53.446;-2.266;2023-03-01T14:08:13;102849.00;;;7.60;76.99
73101;BME280;61288;53.446;-2.266;2023-03-01T14:10:53;102854.97;;;7.51;77.42
73101;BME280;61288;53.446;-2.266;2023-03-01T14:18:43;102832.88;;;7.98;75.38
73101;BME280;61288;53.446;-2.266;2023-03-01T14:21:13;102830.28;;;7.92;74.43
73101;BME280;61288;53.446;-2.266;2023-03-01T14:23:41;102835.31;;;7.69;75.64
73101;BME280;61288;53.446;-2.266;2023-03-01T14:26:08;102833.47;;;7.50;77.28
73101;BME280;61288;53.446;-2.266;2023-03-01T14:28:36;102842.72;;;7.23;79.74
73101;BME280;61288;53.446;-2.266;2023-03-01T14:31:37;102836.53;;;7.01;81.32
73101;BME280;61288;53.446;-2.266;2023-03-01T14:34:03;102825.28;;;6.93;81.52
73101;BME280;61288;53.446;-2.266;2023-03-01T14:36:33;102832.97;;;6.85;81.59
73101;BME280;61288;53.446;-2.266;2023-03-01T14:39:00;102830.38;;;6.85;81.78
73101;BME280;61288;53.446;-2.266;2023-03-01T14:41:34;102821.72;;;6.78;81.15
73101;BME280;61288;53.446;-2.266;2023-03-01T14:44:04;102816.75;;;7.02;81.58
73101;BME280;61288;53.446;-2.266;2023-03-01T14:46:40;102807.47;;;7.19;80.43
73101;BME280;61288;53.446;-2.266;2023-03-01T14:51:36;102796.50;;;7.51;78.84